OMSJ/SHJ METAR and TAF weather

Enter ICAO airport designator
Station Type Date Time Source
OMSJ METAR 2020/01/24 09:00 UTC NOAA

OMSJ 240900Z 26013KT 9999 FEW027 SCT045 21/14 Q1019 NOSIG


Station Type Date Time Source
OMSJ Decoded METAR 2020/01/24 09:00 UTC NOAA

Sharjah International Airport, United Arab Emirates (OMSJ) 25-20N 055-31E 33M
Jan 24, 2020 - 04:00 AM EST / 2020.01.24 0900 UTC
Wind: from the W (260 degrees) at 15 MPH (13 KT):0
Visibility: greater than 7 mile(s):0
Sky conditions: partly cloudy
Temperature: 69 F (21 C)
Dew Point: 57 F (14 C)
Relative Humidity: 64%
Pressure (altimeter): 30.09 in. Hg (1019 hPa)
ob: OMSJ 240900Z 26013KT 9999 FEW027 SCT045 21/14 Q1019 NOSIG
cycle: 9

Station Type Date Time Source
OMSJ TAF 2020/01/24 06:03 UTC NOAA

TAF OMSJ 240453Z 2406/2512 28012KT 9999 FEW020 SCT045 PROB30
TEMPO 2406/2410 VRB15G25KT 4000 SHRA FEW030TCU
BECMG 2416/2418 18005KT
BECMG 2507/2509 30010KT

Example: see airport list